createdAt,value
2023-02-24T00:02:01.701Z,106.03
2023-02-24T00:04:33.158Z,107.82
2023-02-24T00:07:02.728Z,102.60
2023-02-24T00:09:31.965Z,104.95
2023-02-24T00:12:03.186Z,104.60
2023-02-24T00:14:33.819Z,107.82
2023-02-24T00:17:02.710Z,107.18
2023-02-24T00:19:35.114Z,116.65
2023-02-24T00:22:05.056Z,97.70
2023-02-24T00:24:33.299Z,111.65
2023-02-24T00:27:07.904Z,102.70
2023-02-24T00:29:37.859Z,106.10
2023-02-24T00:32:08.365Z,104.82
2023-02-24T00:34:37.791Z,107.38
2023-02-24T00:37:09.480Z,102.20
2023-02-24T00:39:42.099Z,103.03
2023-02-24T00:42:12.242Z,111.97
2023-02-24T00:44:44.764Z,114.35
2023-02-24T00:47:13.768Z,109.13
2023-02-24T00:49:43.455Z,104.43
2023-02-24T00:52:15.724Z,101.63
2023-02-24T00:54:46.373Z,101.53
2023-02-24T00:57:17.696Z,104.82
2023-02-24T00:59:51.601Z,103.22
2023-02-24T01:02:20.628Z,111.75
2023-02-24T01:04:50.068Z,107.88
2023-02-24T01:07:18.132Z,111.18
2023-02-24T01:09:46.409Z,104.97
2023-02-24T01:12:33.066Z,99.50
2023-02-24T01:15:05.207Z,99.80
2023-02-24T01:17:37.076Z,102.65
2023-02-24T01:20:17.123Z,100.63
2023-02-24T01:22:48.273Z,103.90
2023-02-24T01:25:19.159Z,105.30
2023-02-24T01:27:47.100Z,102.95
2023-02-24T01:30:16.458Z,102.13
2023-02-24T01:32:45.097Z,112.00
2023-02-24T01:35:14.650Z,93.30
2023-02-24T01:37:43.299Z,100.90
2023-02-24T01:40:22.018Z,97.30
2023-02-24T01:42:50.905Z,95.32
2023-02-24T01:45:25.342Z,98.68
2023-02-24T01:47:57.391Z,97.63
2023-02-24T01:50:26.888Z,97.50
2023-02-24T01:53:01.208Z,96.50
2023-02-24T01:55:34.654Z,95.05
2023-02-24T01:58:09.069Z,106.95
2023-02-24T02:00:45.301Z,101.28
2023-02-24T02:03:20.697Z,96.15
2023-02-24T02:05:49.785Z,83.90
2023-02-24T02:08:19.981Z,96.60
2023-02-24T02:10:48.072Z,107.25
2023-02-24T02:13:21.611Z,89.40
2023-02-24T02:16:01.084Z,108.60
2023-02-24T02:18:34.938Z,96.28
2023-02-24T02:21:33.408Z,106.35
2023-02-24T02:24:24.383Z,96.43
2023-02-24T02:27:11.687Z,86.18
2023-02-24T02:30:17.889Z,92.30
2023-02-24T02:33:27.642Z,101.25
2023-02-24T02:36:01.707Z,100.10
2023-02-24T02:38:43.196Z,94.97
2023-02-24T02:41:36.542Z,100.75
2023-02-24T02:44:25.810Z,100.82
2023-02-24T02:46:59.823Z,98.53
2023-02-24T02:49:38.245Z,99.90
2023-02-24T02:52:15.653Z,102.18
2023-02-24T02:54:50.819Z,102.20
2023-02-24T03:00:09.858Z,92.45
2023-02-24T03:02:41.638Z,100.28
2023-02-24T03:05:12.062Z,99.55
2023-02-24T03:07:45.535Z,93.57
2023-02-24T03:10:22.552Z,102.30
2023-02-24T03:12:56.068Z,102.63
2023-02-24T03:15:27.778Z,96.43
2023-02-24T03:18:12.315Z,91.07
2023-02-24T03:20:47.180Z,92.72
2023-02-24T03:23:26.107Z,90.25
2023-02-24T03:26:01.072Z,92.75
2023-02-24T03:28:43.739Z,96.05
2023-02-24T03:31:19.292Z,94.15
2023-02-24T03:34:08.762Z,89.75
2023-02-24T03:36:37.098Z,88.60
2023-02-24T03:39:11.355Z,106.35
2023-02-24T03:42:04.447Z,93.65
2023-02-24T03:44:35.324Z,95.72
2023-02-24T03:47:03.857Z,92.60
2023-02-24T03:49:31.962Z,100.22
2023-02-24T03:52:25.572Z,94.18
2023-02-24T03:55:18.454Z,98.25
2023-02-24T03:57:55.696Z,101.57
2023-02-24T04:01:05.851Z,96.43
2023-02-24T04:03:48.001Z,102.75
2023-02-24T04:06:58.179Z,102.25
2023-02-24T04:09:51.104Z,93.70
2023-02-24T04:12:27.268Z,99.53
2023-02-24T04:15:20.349Z,106.30
2023-02-24T04:17:51.058Z,94.30
2023-02-24T04:20:23.301Z,100.88
2023-02-24T04:23:08.910Z,96.07
2023-02-24T04:25:39.497Z,104.95
2023-02-24T04:28:09.014Z,90.25
2023-02-24T04:30:44.589Z,94.97
2023-02-24T04:33:14.508Z,100.28
2023-02-24T04:35:45.562Z,100.40
2023-02-24T04:38:13.685Z,90.22
2023-02-24T04:40:42.643Z,92.75
2023-02-24T04:43:11.230Z,95.55
2023-02-24T04:45:42.041Z,91.88
2023-02-24T04:48:13.111Z,94.25
2023-02-24T04:50:43.859Z,98.10
2023-02-24T04:53:14.882Z,99.38
2023-02-24T04:55:51.311Z,102.53
2023-02-24T04:58:22.228Z,88.32
2023-02-24T05:01:01.114Z,91.32
2023-02-24T05:03:30.224Z,85.50
2023-02-24T05:06:02.651Z,91.78
2023-02-24T05:08:31.288Z,93.63
2023-02-24T05:11:04.041Z,86.93
2023-02-24T05:13:32.734Z,86.07
2023-02-24T05:16:07.628Z,80.25
2023-02-24T05:18:37.358Z,94.90
2023-02-24T05:21:27.244Z,85.00
2023-02-24T05:23:55.889Z,90.13
2023-02-24T05:26:25.872Z,80.78
2023-02-24T05:28:56.747Z,84.43
2023-02-24T05:31:27.551Z,86.00
2023-02-24T05:34:06.869Z,82.95
2023-02-24T05:36:40.427Z,83.53
2023-02-24T05:39:12.857Z,87.80
2023-02-24T05:41:43.558Z,97.90
2023-02-24T05:44:14.008Z,82.90
2023-02-24T05:46:44.765Z,90.45
2023-02-24T05:49:16.055Z,99.25
2023-02-24T05:51:54.910Z,93.65
2023-02-24T05:54:35.927Z,93.57
2023-02-24T05:57:07.318Z,87.82
2023-02-24T05:59:35.513Z,87.38
2023-02-24T06:02:07.564Z,97.35
2023-02-24T06:04:40.862Z,90.80
2023-02-24T06:07:14.756Z,87.05
2023-02-24T06:09:45.744Z,87.63
2023-02-24T06:12:18.504Z,86.15
2023-02-24T06:14:46.799Z,93.60
2023-02-24T06:17:17.208Z,90.13
2023-02-24T06:19:46.902Z,81.93
2023-02-24T06:22:16.842Z,87.60
2023-02-24T06:24:45.976Z,85.43
2023-02-24T06:27:21.794Z,92.63
2023-02-24T06:29:51.356Z,75.95
2023-02-24T06:32:22.259Z,80.95
2023-02-24T06:34:51.892Z,85.97
2023-02-24T06:37:20.207Z,80.63
2023-02-24T06:39:48.212Z,85.20
2023-02-24T06:42:16.729Z,76.78
2023-02-24T06:44:44.764Z,83.97
2023-02-24T06:47:14.370Z,80.97
2023-02-24T06:49:45.156Z,92.88
2023-02-24T06:52:18.790Z,81.03
2023-02-24T06:54:52.599Z,90.88
2023-02-24T06:57:20.880Z,81.13
2023-02-24T06:59:49.267Z,89.65
2023-02-24T07:02:17.830Z,78.75
2023-02-24T07:04:46.094Z,90.85
2023-02-24T07:07:17.674Z,76.80
2023-02-24T07:09:45.764Z,83.65
2023-02-24T07:12:13.840Z,83.38
2023-02-24T07:14:41.843Z,80.25
2023-02-24T07:17:10.513Z,70.63
2023-02-24T07:19:38.351Z,78.57
2023-02-24T07:22:06.204Z,92.63
2023-02-24T07:24:36.811Z,82.72
2023-02-24T07:27:11.939Z,79.10
2023-02-24T07:29:40.115Z,90.65
2023-02-24T07:32:10.715Z,83.20
2023-02-24T07:34:42.401Z,85.72
2023-02-24T07:37:10.921Z,70.55
2023-02-24T07:39:40.062Z,72.20
2023-02-24T07:42:10.284Z,76.40
2023-02-24T07:44:46.875Z,80.80
2023-02-24T07:47:16.248Z,80.38
2023-02-24T07:49:45.699Z,94.35
2023-02-24T07:52:13.826Z,94.35
2023-02-24T07:54:41.772Z,84.90
2023-02-24T07:57:14.266Z,87.40
2023-02-24T07:59:45.244Z,87.45
2023-02-24T08:02:13.993Z,81.28
2023-02-24T08:04:47.610Z,85.90
2023-02-24T08:07:16.073Z,94.50
2023-02-24T08:09:46.956Z,77.13
2023-02-24T08:12:22.724Z,79.07
2023-02-24T08:14:53.738Z,91.20
2023-02-24T08:17:26.674Z,93.53
2023-02-24T08:20:14.321Z,73.35
2023-02-24T08:22:52.369Z,80.93
2023-02-24T08:25:38.401Z,82.68
2023-02-24T08:28:11.793Z,82.82
2023-02-24T08:30:48.579Z,81.80
2023-02-24T08:33:22.273Z,80.80
2023-02-24T08:36:01.594Z,76.55
2023-02-24T08:38:44.725Z,82.63
2023-02-24T08:41:20.266Z,82.57
2023-02-24T08:43:49.410Z,82.68
2023-02-24T08:46:21.528Z,83.65
2023-02-24T08:48:55.863Z,85.82
2023-02-24T08:51:30.863Z,78.13
2023-02-24T08:54:01.539Z,84.75
2023-02-24T08:56:34.632Z,88.90
2023-02-24T08:59:05.935Z,92.40
2023-02-24T09:01:40.091Z,77.70
2023-02-24T09:06:37.134Z,79.78
2023-02-24T09:09:37.655Z,81.40
2023-02-24T09:12:06.076Z,81.60
2023-02-24T09:14:37.570Z,78.43
2023-02-24T09:17:13.654Z,78.95
2023-02-24T09:19:47.285Z,86.88
2023-02-24T09:22:32.996Z,91.28
2023-02-24T09:25:40.878Z,88.25
2023-02-24T09:28:18.815Z,89.32
2023-02-24T09:30:56.005Z,93.03
2023-02-24T09:33:27.752Z,100.35
2023-02-24T09:36:10.656Z,90.75
2023-02-24T09:39:02.082Z,96.82
2023-02-24T09:41:45.427Z,104.75
2023-02-24T09:44:19.924Z,107.85
2023-02-24T09:46:55.076Z,106.88
2023-02-24T09:49:40.219Z,95.30
2023-02-24T09:52:19.142Z,98.82
2023-02-24T09:55:16.266Z,102.35
2023-02-24T09:58:10.147Z,96.03
2023-02-24T10:00:44.409Z,103.63
2023-02-24T10:03:42.725Z,103.82
2023-02-24T10:06:20.974Z,106.68
2023-02-24T10:09:11.853Z,101.50
2023-02-24T10:11:53.755Z,97.72
2023-02-24T10:14:51.126Z,98.63
2023-02-24T10:17:30.826Z,85.97
2023-02-24T10:20:14.135Z,86.93
2023-02-24T10:22:55.030Z,86.57
2023-02-24T10:25:38.921Z,95.63
2023-02-24T10:28:20.296Z,89.28
2023-02-24T10:31:04.109Z,91.35
2023-02-24T10:33:39.400Z,88.50
2023-02-24T10:36:10.801Z,96.57
2023-02-24T10:38:41.226Z,84.50
2023-02-24T10:41:10.574Z,78.53
2023-02-24T10:43:47.896Z,81.95
2023-02-24T10:46:38.561Z,83.35
2023-02-24T10:49:16.978Z,89.88
2023-02-24T10:51:52.360Z,93.88
2023-02-24T10:54:34.707Z,92.57
2023-02-24T10:57:18.863Z,85.00
2023-02-24T11:00:16.414Z,89.70
2023-02-24T11:03:07.228Z,93.18
2023-02-24T11:05:56.590Z,82.53
2023-02-24T11:08:42.971Z,74.20
2023-02-24T11:11:29.855Z,82.63
2023-02-24T11:14:20.108Z,81.53
2023-02-24T11:17:11.792Z,80.28
2023-02-24T11:19:55.655Z,80.38
2023-02-24T11:22:28.122Z,80.93
2023-02-24T11:24:56.369Z,81.90
2023-02-24T11:27:26.565Z,73.50
2023-02-24T11:30:16.773Z,81.07
2023-02-24T11:33:29.099Z,74.97
2023-02-24T11:36:14.623Z,78.70
2023-02-24T11:38:53.873Z,76.07
2023-02-24T11:41:33.911Z,80.88
2023-02-24T11:44:23.876Z,75.68
2023-02-24T11:47:00.849Z,68.75
2023-02-24T11:49:39.740Z,80.88
2023-02-24T11:52:14.382Z,75.78
2023-02-24T11:54:50.738Z,84.28
2023-02-24T11:57:23.975Z,79.82
2023-02-24T12:00:14.912Z,68.75
2023-02-24T12:03:02.215Z,75.40
2023-02-24T12:05:39.267Z,76.78
2023-02-24T12:08:35.169Z,80.85
2023-02-24T12:11:23.093Z,81.13
2023-02-24T12:14:14.380Z,76.57
2023-02-24T12:16:48.172Z,73.72
2023-02-24T12:19:23.832Z,78.88
2023-02-24T12:21:59.246Z,81.32
2023-02-24T12:24:27.234Z,71.97
2023-02-24T12:27:14.396Z,85.00
2023-02-24T12:30:34.460Z,75.40
2023-02-24T12:33:05.472Z,68.28
2023-02-24T12:36:12.569Z,72.68
2023-02-24T12:39:16.227Z,70.07
2023-02-24T12:42:13.718Z,75.93
2023-02-24T12:45:16.100Z,69.05
2023-02-24T12:47:57.961Z,68.28
2023-02-24T12:50:51.278Z,69.10
2023-02-24T12:53:52.218Z,69.53
2023-02-24T12:56:31.378Z,63.45
2023-02-24T12:59:05.632Z,61.15
2023-02-24T13:01:52.127Z,64.00
2023-02-24T13:04:53.855Z,56.65
2023-02-24T13:07:39.951Z,59.72
2023-02-24T13:10:42.557Z,59.25
2023-02-24T13:13:19.978Z,61.33
2023-02-24T13:16:00.265Z,59.58
2023-02-24T13:18:33.582Z,57.03
2023-02-24T13:21:07.706Z,58.33
2023-02-24T13:26:05.074Z,64.35
2023-02-24T13:28:39.809Z,58.60
2023-02-24T13:31:12.788Z,64.72
2023-02-24T13:33:44.314Z,50.72
2023-02-24T13:36:21.750Z,56.35
2023-02-24T13:38:52.847Z,56.92
2023-02-24T13:41:38.846Z,63.60
2023-02-24T13:44:19.989Z,55.80
2023-02-24T13:47:06.943Z,56.00
2023-02-24T13:50:12.682Z,55.65
2023-02-24T13:53:27.749Z,57.20
2023-02-24T13:56:36.096Z,58.15
2023-02-24T13:59:25.953Z,52.03
2023-02-24T14:02:08.518Z,49.80
2023-02-24T14:04:48.413Z,53.47
2023-02-24T14:07:26.743Z,51.40
2023-02-24T14:10:20.823Z,44.00
2023-02-24T14:12:51.859Z,49.20
2023-02-24T14:15:24.685Z,46.80
2023-02-24T14:18:06.304Z,49.50
2023-02-24T14:20:38.085Z,51.10
2023-02-24T14:23:23.378Z,46.85
2023-02-24T14:25:58.821Z,47.92
2023-02-24T14:28:35.186Z,50.25
2023-02-24T14:31:13.618Z,48.30
2023-02-24T14:33:43.810Z,50.08
2023-02-24T14:36:24.080Z,50.47
2023-02-24T14:39:17.101Z,47.00
2023-02-24T14:41:46.592Z,54.95
2023-02-24T14:44:27.699Z,41.00
2023-02-24T14:46:59.982Z,48.60
2023-02-24T14:49:31.655Z,49.60
2023-02-24T14:52:16.650Z,46.63
2023-02-24T14:54:47.845Z,47.28
2023-02-24T14:57:22.897Z,48.78
2023-02-24T15:00:12.512Z,54.30
2023-02-24T15:02:51.738Z,46.55
2023-02-24T15:05:19.948Z,47.53
2023-02-24T15:07:48.775Z,48.25
2023-02-24T15:10:22.006Z,51.03
2023-02-24T15:13:01.191Z,49.60
2023-02-24T15:15:35.129Z,46.72
2023-02-24T15:18:10.892Z,46.88
2023-02-24T15:20:41.242Z,52.97
2023-02-24T15:23:31.126Z,50.83
2023-02-24T15:26:01.669Z,52.00
2023-02-24T15:28:36.857Z,49.47
2023-02-24T15:31:11.481Z,48.83
2023-02-24T15:33:44.153Z,53.17
2023-02-24T15:36:24.678Z,47.80
2023-02-24T15:38:57.065Z,50.95
2023-02-24T15:41:25.544Z,47.03
2023-02-24T15:43:56.717Z,50.45
2023-02-24T15:46:36.131Z,52.60
2023-02-24T15:49:06.166Z,55.38
2023-02-24T15:51:41.584Z,47.38
2023-02-24T15:54:16.867Z,57.08
2023-02-24T15:56:51.552Z,46.63
2023-02-24T15:59:24.017Z,54.30
2023-02-24T16:01:53.465Z,45.40
2023-02-24T16:04:23.598Z,47.65
2023-02-24T16:06:54.921Z,53.83
2023-02-24T16:09:34.060Z,46.63
2023-02-24T16:12:08.937Z,56.90
2023-02-24T16:14:38.434Z,63.40
2023-02-24T16:17:15.042Z,60.53
2023-02-24T16:19:44.437Z,72.20
2023-02-24T16:22:13.162Z,67.18
2023-02-24T16:24:44.289Z,57.25
2023-02-24T16:27:22.049Z,61.85
2023-02-24T16:29:51.607Z,56.85
2023-02-24T16:32:23.875Z,61.15
2023-02-24T16:34:52.970Z,55.90
2023-02-24T16:37:22.487Z,50.63
2023-02-24T16:39:51.675Z,61.15
2023-02-24T16:42:21.848Z,47.83
2023-02-24T16:44:50.907Z,52.20
2023-02-24T16:47:24.440Z,60.15
2023-02-24T16:49:55.545Z,48.05
2023-02-24T16:52:25.099Z,48.92
2023-02-24T16:54:53.290Z,48.65
2023-02-24T16:57:25.785Z,48.80
2023-02-24T16:59:53.917Z,53.10
2023-02-24T17:02:26.284Z,47.53
2023-02-24T17:04:54.369Z,49.88
2023-02-24T17:07:22.463Z,51.10
2023-02-24T17:09:50.648Z,50.85
2023-02-24T17:12:22.183Z,51.28
2023-02-24T17:14:50.236Z,51.90
2023-02-24T17:17:19.577Z,40.83
2023-02-24T17:19:47.498Z,50.40
2023-02-24T17:22:15.312Z,46.35
2023-02-24T17:24:43.230Z,54.85
2023-02-24T17:27:14.312Z,56.08
2023-02-24T17:29:42.151Z,50.20
2023-02-24T17:32:10.159Z,52.75
2023-02-24T17:34:38.222Z,57.55
2023-02-24T17:37:06.174Z,53.65
2023-02-24T17:39:33.975Z,45.72
2023-02-24T17:42:02.586Z,50.10
2023-02-24T17:44:30.905Z,58.38
2023-02-24T17:46:58.816Z,51.75
2023-02-24T17:49:26.996Z,51.45
2023-02-24T17:51:55.023Z,52.88
2023-02-24T17:54:22.990Z,50.55
2023-02-24T17:56:50.956Z,51.15
2023-02-24T17:59:19.014Z,51.92
2023-02-24T18:01:46.984Z,50.90
2023-02-24T18:04:14.983Z,50.25
2023-02-24T18:06:44.464Z,50.28
2023-02-24T18:09:12.343Z,55.28
2023-02-24T18:11:40.367Z,50.83
2023-02-24T18:14:08.257Z,51.28
2023-02-24T18:16:36.329Z,52.05
2023-02-24T18:19:05.911Z,52.95
2023-02-24T18:21:33.925Z,57.10
2023-02-24T18:24:02.014Z,59.22
2023-02-24T18:26:32.372Z,59.03
2023-02-24T18:29:00.684Z,53.35
2023-02-24T18:31:29.666Z,58.88
2023-02-24T18:33:57.822Z,61.83
2023-02-24T18:36:27.061Z,58.72
2023-02-24T18:38:57.827Z,53.55
2023-02-24T18:41:26.850Z,57.47
2023-02-24T18:43:57.157Z,56.70
2023-02-24T18:46:26.799Z,59.60
2023-02-24T18:48:56.441Z,60.30
2023-02-24T18:51:26.792Z,60.13
2023-02-24T18:53:55.065Z,59.47
2023-02-24T18:56:25.600Z,67.85
2023-02-24T18:58:59.006Z,58.75
2023-02-24T19:01:33.076Z,56.30
2023-02-24T19:04:02.358Z,58.53
2023-02-24T19:06:32.373Z,60.30
2023-02-24T19:09:09.919Z,56.95
2023-02-24T19:11:40.094Z,66.30
2023-02-24T19:14:11.994Z,64.38
2023-02-24T19:16:40.932Z,64.13
2023-02-24T19:19:14.127Z,70.68
2023-02-24T19:21:45.615Z,65.30
2023-02-24T19:24:14.196Z,62.40
2023-02-24T19:26:44.124Z,68.13
2023-02-24T19:29:12.299Z,65.82
2023-02-24T19:31:40.724Z,55.92
2023-02-24T19:34:12.187Z,64.70
2023-02-24T19:36:41.706Z,70.65
2023-02-24T19:39:14.305Z,59.22
2023-02-24T19:41:43.162Z,59.22
2023-02-24T19:44:11.296Z,70.88
2023-02-24T19:46:41.252Z,67.53
2023-02-24T19:49:10.169Z,70.57
2023-02-24T19:51:39.346Z,70.20
2023-02-24T19:54:12.478Z,62.78
2023-02-24T19:56:41.526Z,65.88
2023-02-24T19:59:11.598Z,63.42
2023-02-24T20:01:39.614Z,61.55
2023-02-24T20:04:08.918Z,59.50
2023-02-24T20:06:53.644Z,57.17
2023-02-24T20:09:23.192Z,57.20
2023-02-24T20:11:52.138Z,59.00
2023-02-24T20:14:21.756Z,54.60
2023-02-24T20:16:50.826Z,62.80
2023-02-24T20:19:19.724Z,64.35
2023-02-24T20:21:48.082Z,59.47
2023-02-24T20:24:17.748Z,62.13
2023-02-24T20:26:49.684Z,59.42
2023-02-24T20:29:19.643Z,68.88
2023-02-24T20:31:48.453Z,69.65
2023-02-24T20:34:17.660Z,58.22
2023-02-24T20:36:46.755Z,66.50
2023-02-24T20:39:15.104Z,63.75
2023-02-24T20:41:43.897Z,59.28
2023-02-24T20:44:11.963Z,62.20
2023-02-24T20:46:40.065Z,69.18
2023-02-24T20:49:11.746Z,65.03
2023-02-24T20:51:39.755Z,68.97
2023-02-24T20:54:09.040Z,64.35
2023-02-24T20:56:39.395Z,64.72
2023-02-24T20:59:12.314Z,65.78
2023-02-24T21:01:40.830Z,62.13
2023-02-24T21:04:09.089Z,73.70
2023-02-24T21:06:37.348Z,64.30
2023-02-24T21:09:05.554Z,70.18
2023-02-24T21:11:34.635Z,76.38
2023-02-24T21:14:02.972Z,68.55
2023-02-24T21:16:31.033Z,71.30
2023-02-24T21:18:59.065Z,70.35
2023-02-24T21:21:28.083Z,64.28
2023-02-24T21:23:56.854Z,66.13
2023-02-24T21:26:27.231Z,67.28
2023-02-24T21:28:58.035Z,65.97
2023-02-24T21:31:27.161Z,62.88
2023-02-24T21:33:55.809Z,69.55
2023-02-24T21:36:26.180Z,68.43
2023-02-24T21:38:55.060Z,70.25
2023-02-24T21:41:23.973Z,60.50
2023-02-24T21:43:55.194Z,71.43
2023-02-24T21:46:28.463Z,63.35
2023-02-24T21:48:58.690Z,71.93
2023-02-24T21:51:28.358Z,68.22
2023-02-24T21:53:57.414Z,67.43
2023-02-24T21:56:30.249Z,59.58
2023-02-24T21:59:00.639Z,68.40
2023-02-24T22:01:32.118Z,67.40
2023-02-24T22:04:04.027Z,68.65
2023-02-24T22:06:34.539Z,75.55
2023-02-24T22:09:04.424Z,69.05
2023-02-24T22:11:35.347Z,67.53
2023-02-24T22:14:04.099Z,67.90
2023-02-24T22:16:31.950Z,69.05
2023-02-24T22:18:59.922Z,62.38
2023-02-24T22:21:29.613Z,75.85
2023-02-24T22:24:00.116Z,67.25
2023-02-24T22:26:30.438Z,68.28
2023-02-24T22:28:59.395Z,66.15
2023-02-24T22:31:30.508Z,71.60
2023-02-24T22:33:58.913Z,69.43
2023-02-24T22:36:33.606Z,67.80
2023-02-24T22:39:02.171Z,70.07
2023-02-24T22:41:35.193Z,74.95
2023-02-24T22:44:05.660Z,60.55
2023-02-24T22:46:36.896Z,69.85
2023-02-24T22:49:05.701Z,65.55
2023-02-24T22:51:33.954Z,71.80
2023-02-24T22:54:01.921Z,64.53
2023-02-24T22:56:31.099Z,65.50
2023-02-24T22:59:00.745Z,75.63
2023-02-24T23:01:31.282Z,69.88
2023-02-24T23:04:00.986Z,73.38
2023-02-24T23:06:30.240Z,66.13
2023-02-24T23:09:00.207Z,72.97
2023-02-24T23:11:29.978Z,67.70
2023-02-24T23:14:00.766Z,72.18
2023-02-24T23:16:31.898Z,61.92
2023-02-24T23:19:02.126Z,73.85
2023-02-24T23:21:38.046Z,65.15
2023-02-24T23:24:07.530Z,67.38
2023-02-24T23:26:40.660Z,68.32
2023-02-24T23:29:10.537Z,68.75
2023-02-24T23:31:40.854Z,69.20
2023-02-24T23:34:10.061Z,64.60
2023-02-24T23:36:40.946Z,74.85
2023-02-24T23:39:09.409Z,73.80
2023-02-24T23:41:38.151Z,67.65
2023-02-24T23:44:06.386Z,74.75
2023-02-24T23:46:35.853Z,66.55
2023-02-24T23:49:05.341Z,72.32
2023-02-24T23:51:47.741Z,78.85
2023-02-24T23:54:20.499Z,77.72
2023-02-24T23:56:48.528Z,70.85
2023-02-24T23:59:16.504Z,71.30
